PWSweather.com
Personal Weather Stations
Station Observations
KJ4AJP
Beautiful Downtown Gardner, Martin, TN 38237

Beautiful Downtown GardnerMartin, TN 38237

Lat: 36.358, Lon: -88.8994

Elevation: 384.3

Station Type: TP1080WC

http://weather.mambm.com/

High Low Average
Temperature 65.1°F18.4°C 41.0°F5.0°C 60.8°F16.0°C
Dew Point 64.9°F18.3°C 40.7°F4.8°C 60.5°F15.8°C
Winds 11.4 mph 18.3 kmh Calm Calm 4.0 mph S6.4 kmh S
Wind Gusts 22.1 mph35.6 kmh -- 11.0 mph17.7 kmh
Humidity 99% 99% 99%
Pressure 29.89 in1012.2 mb 29.71 in1006.1 mb -
Precipitation 0.70 in17.8 mm - -
Hour Temp Dew Point Humidity Winds Wind Gusts Pressure Precip Precip Rate Daily Precip Total
12:00 AM 59.7°F15.4°C 59.5°F15.3°C 99% 3.8 mph SE6.1 kmh SE 13.0 mph20.9 kmh 29.90 in1012.5 mb 0.00 in0.0 mm 0.00 in0.0 mm 0.02 in0.5 mm
12:15 AM 59.7°F15.4°C 59.5°F15.3°C 99% 6.0 mph SSE9.7 kmh SSE 16.8 mph27.0 kmh 29.88 in1011.9 mb 0.00 in0.0 mm 0.00 in0.0 mm 0.02 in0.5 mm
12:30 AM 59.5°F15.3°C 59.3°F15.2°C 99% 3.8 mph SSE6.1 kmh SSE 12.1 mph19.5 kmh 29.88 in1011.9 mb 0.00 in0.0 mm 0.00 in0.0 mm 0.02 in0.5 mm
12:45 AM 59.5°F15.3°C 59.3°F15.2°C 99% 4.5 mph SE7.2 kmh SE 15.9 mph25.6 kmh 29.88 in1011.9 mb 0.00 in0.0 mm 0.00 in0.0 mm 0.02 in0.5 mm
01:00 AM 59.5°F15.3°C 59.3°F15.2°C 99% 6.0 mph S9.7 kmh S 14.5 mph23.3 kmh 29.88 in1011.9 mb 0.00 in0.0 mm 0.00 in0.0 mm 0.00 in0.0 mm
01:15 AM 59.9°F15.5°C 59.6°F15.3°C 99% 7.6 mph SE12.2 kmh SE 13.6 mph21.9 kmh 29.88 in1011.9 mb 0.00 in0.0 mm 0.00 in0.0 mm 0.00 in0.0 mm
01:30 AM 59.9°F15.5°C 59.6°F15.3°C 99% 3.8 mph SSE6.1 kmh SSE 21.3 mph34.3 kmh 29.88 in1011.9 mb 0.00 in0.0 mm 0.00 in0.0 mm 0.00 in0.0 mm
01:45 AM 60.3°F15.7°C 60.0°F15.6°C 99% 5.4 mph SSE8.7 kmh SSE 14.5 mph23.3 kmh 29.88 in1011.9 mb 0.00 in0.0 mm 0.00 in0.0 mm 0.00 in0.0 mm
02:00 AM 60.8°F16.0°C 60.5°F15.8°C 99% 6.0 mph SSE9.7 kmh SSE 18.3 mph29.5 kmh 29.88 in1011.9 mb 0.00 in0.0 mm 0.00 in0.0 mm 0.00 in0.0 mm
02:15 AM 61.0°F16.1°C 60.7°F15.9°C 99% 2.2 mph S3.5 kmh S 13.0 mph20.9 kmh 29.88 in1011.9 mb 0.00 in0.0 mm 0.00 in0.0 mm 0.00 in0.0 mm
02:30 AM 61.3°F16.3°C 61.1°F16.2°C 99% 4.5 mph SSE7.2 kmh SSE 13.0 mph20.9 kmh 29.89 in1012.2 mb 0.00 in0.0 mm 0.00 in0.0 mm 0.00 in0.0 mm
02:45 AM 61.5°F16.4°C 61.3°F16.3°C 99% 6.9 mph S11.1 kmh S 13.6 mph21.9 kmh 29.89 in1012.2 mb 0.00 in0.0 mm 0.00 in0.0 mm 0.00 in0.0 mm
03:00 AM 61.7°F16.5°C 61.4°F16.3°C 99% 4.5 mph S7.2 kmh S 12.1 mph19.5 kmh 29.88 in1011.9 mb 0.00 in0.0 mm 0.00 in0.0 mm 0.00 in0.0 mm
03:15 AM 61.9°F16.6°C 61.6°F16.4°C 99% 3.8 mph S6.1 kmh S 14.5 mph23.3 kmh 29.88 in1011.9 mb 0.00 in0.0 mm 0.00 in0.0 mm 0.00 in0.0 mm
03:30 AM 61.9°F16.6°C 61.6°F16.4°C 99% 4.5 mph SSE7.2 kmh SSE 13.0 mph20.9 kmh 29.88 in1011.9 mb 0.00 in0.0 mm 0.00 in0.0 mm 0.00 in0.0 mm
03:45 AM 61.9°F16.6°C 61.6°F16.4°C 99% 5.4 mph SSE8.7 kmh SSE 13.6 mph21.9 kmh 29.89 in1012.2 mb 0.00 in0.0 mm 0.00 in0.0 mm 0.00 in0.0 mm
04:00 AM 62.1°F16.7°C 61.8°F16.6°C 99% 3.8 mph S6.1 kmh S 11.4 mph18.3 kmh 29.88 in1011.9 mb 0.00 in0.0 mm 0.00 in0.0 mm 0.00 in0.0 mm
04:15 AM 61.9°F16.6°C 61.6°F16.4°C 99% 6.9 mph S11.1 kmh S 15.9 mph25.6 kmh 29.89 in1012.2 mb 0.00 in0.0 mm 0.00 in0.0 mm 0.00 in0.0 mm
04:30 AM 61.9°F16.6°C 61.6°F16.4°C 99% 3.8 mph SSE6.1 kmh SSE 9.8 mph15.8 kmh 29.88 in1011.9 mb 0.00 in0.0 mm 0.00 in0.0 mm 0.00 in0.0 mm
04:45 AM 62.1°F16.7°C 61.8°F16.6°C 99% 6.0 mph SE9.7 kmh SE 15.2 mph24.5 kmh 29.87 in1011.5 mb 0.00 in0.0 mm 0.00 in0.0 mm 0.00 in0.0 mm
05:00 AM 62.1°F16.7°C 61.8°F16.6°C 99% 3.1 mph SSE5.0 kmh SSE 13.0 mph20.9 kmh 29.87 in1011.5 mb 0.00 in0.0 mm 0.00 in0.0 mm 0.00 in0.0 mm
05:15 AM 62.2°F16.8°C 62.0°F16.7°C 99% 3.8 mph SE6.1 kmh SE 15.2 mph24.5 kmh 29.87 in1011.5 mb 0.00 in0.0 mm 0.00 in0.0 mm 0.00 in0.0 mm
05:30 AM 62.4°F16.9°C 62.2°F16.8°C 99% 4.5 mph SSE7.2 kmh SSE 14.5 mph23.3 kmh 29.87 in1011.5 mb 0.00 in0.0 mm 0.00 in0.0 mm 0.00 in0.0 mm
05:45 AM 62.4°F16.9°C 62.2°F16.8°C 99% 3.1 mph SE5.0 kmh SE 11.4 mph18.3 kmh 29.87 in1011.5 mb 0.00 in0.0 mm 0.00 in0.0 mm 0.00 in0.0 mm
06:00 AM 62.2°F16.8°C 62.0°F16.7°C 99% 3.1 mph SSE5.0 kmh SSE 13.0 mph20.9 kmh 29.87 in1011.5 mb 0.00 in0.0 mm 0.00 in0.0 mm 0.00 in0.0 mm
06:15 AM 62.2°F16.8°C 62.0°F16.7°C 99% 4.5 mph SSE7.2 kmh SSE 13.0 mph20.9 kmh 29.86 in1011.2 mb 0.00 in0.0 mm 0.00 in0.0 mm 0.00 in0.0 mm
06:30 AM 62.1°F16.7°C 61.8°F16.6°C 99% 3.1 mph SE5.0 kmh SE 7.6 mph12.2 kmh 29.86 in1011.2 mb 0.00 in0.0 mm 0.00 in0.0 mm 0.00 in0.0 mm
06:45 AM 61.7°F16.5°C 61.4°F16.3°C 99% 2.2 mph SE3.5 kmh SE 10.7 mph17.2 kmh 29.86 in1011.2 mb 0.00 in0.0 mm 0.00 in0.0 mm 0.00 in0.0 mm
07:00 AM 61.5°F16.4°C 61.3°F16.3°C 99% 3.8 mph SE6.1 kmh SE 12.1 mph19.5 kmh 29.84 in1010.5 mb 0.00 in0.0 mm 0.00 in0.0 mm 0.00 in0.0 mm
07:15 AM 61.5°F16.4°C 61.3°F16.3°C 99% 5.4 mph SE8.7 kmh SE 9.8 mph15.8 kmh 29.85 in1010.8 mb 0.00 in0.0 mm 0.00 in0.0 mm 0.00 in0.0 mm
07:30 AM 61.5°F16.4°C 61.3°F16.3°C 99% 5.4 mph SE8.7 kmh SE 13.0 mph20.9 kmh 29.85 in1010.8 mb 0.00 in0.0 mm 0.00 in0.0 mm 0.00 in0.0 mm
07:45 AM 61.5°F16.4°C 61.3°F16.3°C 99% 4.5 mph SSE7.2 kmh SSE 9.8 mph15.8 kmh 29.84 in1010.5 mb 0.00 in0.0 mm 0.00 in0.0 mm 0.00 in0.0 mm
08:00 AM 61.5°F16.4°C 61.3°F16.3°C 99% 1.6 mph SSE2.6 kmh SSE 9.2 mph14.8 kmh 29.85 in1010.8 mb 0.00 in0.0 mm 0.00 in0.0 mm 0.00 in0.0 mm
08:15 AM 61.5°F16.4°C 61.3°F16.3°C 99% 3.1 mph SSE5.0 kmh SSE 8.3 mph13.4 kmh 29.85 in1010.8 mb 0.00 in0.0 mm 0.00 in0.0 mm 0.00 in0.0 mm
08:30 AM 61.5°F16.4°C 61.3°F16.3°C 99% 3.1 mph S5.0 kmh S 10.7 mph17.2 kmh 29.86 in1011.2 mb 0.00 in0.0 mm 0.00 in0.0 mm 0.00 in0.0 mm
08:45 AM 61.5°F16.4°C 61.3°F16.3°C 99% 2.2 mph SE3.5 kmh SE 7.6 mph12.2 kmh 29.85 in1010.8 mb 0.00 in0.0 mm 0.00 in0.0 mm 0.00 in0.0 mm
09:00 AM 61.3°F16.3°C 61.1°F16.2°C 99% 5.4 mph SSE8.7 kmh SSE 8.3 mph13.4 kmh 29.86 in1011.2 mb 0.00 in0.0 mm 0.00 in0.0 mm 0.00 in0.0 mm
09:15 AM 61.3°F16.3°C 61.1°F16.2°C 99% 3.1 mph SE5.0 kmh SE 9.2 mph14.8 kmh 29.86 in1011.2 mb 0.05 in1.3 mm 0.20 in5.1 mm 0.05 in1.3 mm
09:30 AM 61.2°F16.2°C 60.9°F16.1°C 99% 3.8 mph SE6.1 kmh SE 10.7 mph17.2 kmh 29.86 in1011.2 mb 0.06 in1.5 mm 0.04 in1.0 mm 0.06 in1.5 mm
09:45 AM 61.0°F16.1°C 60.7°F15.9°C 99% 3.1 mph SE5.0 kmh SE 6.9 mph11.1 kmh 29.85 in1010.8 mb 0.06 in1.5 mm 0.00 in0.0 mm 0.06 in1.5 mm
10:00 AM 61.0°F16.1°C 60.7°F15.9°C 99% 3.1 mph SE5.0 kmh SE 5.4 mph8.7 kmh 29.86 in1011.2 mb 0.07 in1.8 mm 0.01 in0.3 mm 0.07 in1.8 mm
10:15 AM 61.2°F16.2°C 60.9°F16.1°C 99% 3.1 mph SE5.0 kmh SE 9.8 mph15.8 kmh 29.86 in1011.2 mb 0.02 in0.5 mm 0.00 in0.0 mm 0.07 in1.8 mm
10:30 AM 61.5°F16.4°C 61.3°F16.3°C 99% 3.1 mph SE5.0 kmh SE 8.3 mph13.4 kmh 29.85 in1010.8 mb 0.01 in0.3 mm 0.00 in0.0 mm 0.07 in1.8 mm
10:45 AM 62.2°F16.8°C 62.0°F16.7°C 99% 3.8 mph SE6.1 kmh SE 13.0 mph20.9 kmh 29.86 in1011.2 mb 0.01 in0.3 mm 0.00 in0.0 mm 0.07 in1.8 mm
11:00 AM 62.8°F17.1°C 62.5°F16.9°C 99% 5.4 mph S8.7 kmh S 15.9 mph25.6 kmh 29.85 in1010.8 mb 0.00 in0.0 mm 0.00 in0.0 mm 0.07 in1.8 mm
11:15 AM 63.5°F17.5°C 63.2°F17.3°C 99% 5.4 mph S8.7 kmh S 13.6 mph21.9 kmh 29.86 in1011.2 mb 0.00 in0.0 mm 0.00 in0.0 mm 0.07 in1.8 mm
11:30 AM 64.6°F18.1°C 64.3°F17.9°C 99% 7.6 mph SSE12.2 kmh SSE 19.7 mph31.7 kmh 29.85 in1010.8 mb 0.00 in0.0 mm 0.00 in0.0 mm 0.07 in1.8 mm
11:45 AM 64.8°F18.2°C 64.5°F18.1°C 99% 4.5 mph SSE7.2 kmh SSE 19.7 mph31.7 kmh 29.86 in1011.2 mb 0.00 in0.0 mm 0.00 in0.0 mm 0.07 in1.8 mm
12:00 PM 64.0°F17.8°C 63.8°F17.7°C 99% 6.9 mph SSE11.1 kmh SSE 20.6 mph33.2 kmh 29.85 in1010.8 mb 0.01 in0.3 mm 0.01 in0.3 mm 0.08 in2.0 mm
12:15 PM 63.5°F17.5°C 63.2°F17.3°C 99% 4.5 mph SSE7.2 kmh SSE 19.0 mph30.6 kmh 29.85 in1010.8 mb 0.01 in0.3 mm 0.00 in0.0 mm 0.08 in2.0 mm
12:30 PM 63.9°F17.7°C 63.6°F17.6°C 99% 4.5 mph SSE7.2 kmh SSE 15.2 mph24.5 kmh 29.84 in1010.5 mb 0.01 in0.3 mm 0.00 in0.0 mm 0.08 in2.0 mm
12:45 PM 63.7°F17.6°C 63.4°F17.4°C 99% 5.4 mph S8.7 kmh S 13.0 mph20.9 kmh 29.83 in1010.2 mb 0.01 in0.3 mm 0.00 in0.0 mm 0.08 in2.0 mm
01:00 PM 63.3°F17.4°C 63.1°F17.3°C 99% 6.9 mph S11.1 kmh S 15.9 mph25.6 kmh 29.82 in1009.8 mb 0.01 in0.3 mm 0.00 in0.0 mm 0.09 in2.3 mm
01:15 PM 63.0°F17.2°C 62.7°F17.1°C 99% 5.4 mph S8.7 kmh S 14.5 mph23.3 kmh 29.82 in1009.8 mb 0.02 in0.5 mm 0.04 in1.0 mm 0.11 in2.8 mm
01:30 PM 63.0°F17.2°C 62.7°F17.1°C 99% 5.4 mph S8.7 kmh S 13.0 mph20.9 kmh 29.82 in1009.8 mb 0.02 in0.5 mm 0.00 in0.0 mm 0.11 in2.8 mm
01:45 PM 63.0°F17.2°C 62.7°F17.1°C 99% 3.8 mph S6.1 kmh S 12.1 mph19.5 kmh 29.81 in1009.5 mb 0.04 in1.0 mm 0.08 in2.0 mm 0.12 in3.0 mm
02:00 PM 63.0°F17.2°C 62.7°F17.1°C 99% 4.5 mph S7.2 kmh S 11.4 mph18.3 kmh 29.81 in1009.5 mb 0.05 in1.3 mm 0.01 in0.3 mm 0.14 in3.6 mm
02:15 PM 63.0°F17.2°C 62.7°F17.1°C 99% 3.8 mph SE6.1 kmh SE 12.1 mph19.5 kmh 29.80 in1009.1 mb 0.06 in1.5 mm 0.04 in1.0 mm 0.17 in4.3 mm
02:30 PM 63.5°F17.5°C 63.2°F17.3°C 99% 6.9 mph S11.1 kmh S 13.0 mph20.9 kmh 29.79 in1008.8 mb 0.06 in1.5 mm 0.00 in0.0 mm 0.17 in4.3 mm
02:45 PM 64.0°F17.8°C 63.8°F17.7°C 99% 4.5 mph S7.2 kmh S 12.1 mph19.5 kmh 29.79 in1008.8 mb 0.05 in1.3 mm 0.00 in0.0 mm 0.17 in4.3 mm
03:00 PM 64.6°F18.1°C 64.3°F17.9°C 99% 6.0 mph SSE9.7 kmh SSE 12.1 mph19.5 kmh 29.77 in1008.1 mb 0.01 in0.3 mm 0.00 in0.0 mm 0.17 in4.3 mm
03:15 PM 65.1°F18.4°C 64.9°F18.3°C 99% 3.8 mph S6.1 kmh S 9.8 mph15.8 kmh 29.78 in1008.5 mb 0.00 in0.0 mm 0.00 in0.0 mm 0.17 in4.3 mm
03:30 PM 64.9°F18.3°C 64.7°F18.2°C 99% 3.1 mph ENE5.0 kmh ENE 11.4 mph18.3 kmh 29.77 in1008.1 mb 0.00 in0.0 mm 0.00 in0.0 mm 0.17 in4.3 mm
03:45 PM 64.8°F18.2°C 64.5°F18.1°C 99% 3.8 mph SSE6.1 kmh SSE 13.0 mph20.9 kmh 29.77 in1008.1 mb 0.00 in0.0 mm 0.00 in0.0 mm 0.17 in4.3 mm
04:00 PM 64.8°F18.2°C 64.5°F18.1°C 99% 6.0 mph S9.7 kmh S 12.1 mph19.5 kmh 29.77 in1008.1 mb 0.00 in0.0 mm 0.00 in0.0 mm 0.17 in4.3 mm
04:15 PM 64.6°F18.1°C 64.3°F17.9°C 99% 3.1 mph SE5.0 kmh SE 10.7 mph17.2 kmh 29.76 in1007.8 mb 0.00 in0.0 mm 0.00 in0.0 mm 0.17 in4.3 mm
04:30 PM 64.4°F18.0°C 64.1°F17.8°C 99% 3.8 mph S6.1 kmh S 9.8 mph15.8 kmh 29.77 in1008.1 mb 0.00 in0.0 mm 0.00 in0.0 mm 0.17 in4.3 mm
04:45 PM 63.9°F17.7°C 63.6°F17.6°C 99% 3.1 mph SSE5.0 kmh SSE 8.3 mph13.4 kmh 29.76 in1007.8 mb 0.00 in0.0 mm 0.00 in0.0 mm 0.17 in4.3 mm
05:00 PM 63.5°F17.5°C 63.2°F17.3°C 99% 2.2 mph SSE3.5 kmh SSE 6.9 mph11.1 kmh 29.77 in1008.1 mb 0.01 in0.3 mm 0.01 in0.3 mm 0.18 in4.6 mm
05:15 PM 63.1°F17.3°C 62.9°F17.2°C 99% 1.6 mph SE2.6 kmh SE 5.4 mph8.7 kmh 29.77 in1008.1 mb 0.02 in0.5 mm 0.04 in1.0 mm 0.19 in4.8 mm
05:30 PM 62.8°F17.1°C 62.5°F16.9°C 99% 3.8 mph SE6.1 kmh SE 6.9 mph11.1 kmh 29.77 in1008.1 mb 0.02 in0.5 mm 0.00 in0.0 mm 0.19 in4.8 mm
05:45 PM 62.6°F17.0°C 62.3°F16.8°C 99% 2.2 mph S3.5 kmh S 6.9 mph11.1 kmh 29.77 in1008.1 mb 0.04 in1.0 mm 0.08 in2.0 mm 0.20 in5.1 mm
06:00 PM 62.4°F16.9°C 62.2°F16.8°C 99% 0.7 mph SSE1.1 kmh SSE 6.9 mph11.1 kmh 29.76 in1007.8 mb 0.02 in0.5 mm 0.00 in0.0 mm 0.20 in5.1 mm
06:15 PM 62.1°F16.7°C 61.8°F16.6°C 99% 2.2 mph SE3.5 kmh SE 5.4 mph8.7 kmh 29.75 in1007.5 mb 0.01 in0.3 mm 0.00 in0.0 mm 0.20 in5.1 mm
06:30 PM 61.9°F16.6°C 61.6°F16.4°C 99% 1.6 mph S2.6 kmh S 3.8 mph6.1 kmh 29.75 in1007.5 mb 0.01 in0.3 mm 0.00 in0.0 mm 0.20 in5.1 mm
06:45 PM 61.5°F16.4°C 61.3°F16.3°C 99% 0.7 mph S1.1 kmh S 3.8 mph6.1 kmh 29.76 in1007.8 mb 0.00 in0.0 mm 0.00 in0.0 mm 0.20 in5.1 mm
07:00 PM 61.3°F16.3°C 61.1°F16.2°C 99% 3.1 mph SW5.0 kmh SW 5.4 mph8.7 kmh 29.76 in1007.8 mb 0.01 in0.3 mm 0.01 in0.3 mm 0.21 in5.3 mm
07:15 PM 61.2°F16.2°C 60.9°F16.1°C 99% 0.7 mph S1.1 kmh S 4.5 mph7.2 kmh 29.75 in1007.5 mb 0.05 in1.3 mm 0.16 in4.1 mm 0.25 in6.4 mm
07:30 PM 61.2°F16.2°C 60.9°F16.1°C 99% Calm Calm 4.5 mph7.2 kmh 29.75 in1007.5 mb 0.05 in1.3 mm 0.00 in0.0 mm 0.25 in6.4 mm
07:45 PM 61.0°F16.1°C 60.7°F15.9°C 99% 1.6 mph SSE2.6 kmh SSE 3.1 mph5.0 kmh 29.75 in1007.5 mb 0.06 in1.5 mm 0.04 in1.0 mm 0.26 in6.6 mm
08:00 PM 60.8°F16.0°C 60.5°F15.8°C 99% 2.2 mph W3.5 kmh W 8.3 mph13.4 kmh 29.75 in1007.5 mb 0.09 in2.3 mm 0.04 in1.0 mm 0.31 in7.9 mm
08:15 PM 60.4°F15.8°C 60.2°F15.7°C 99% 0.7 mph W1.1 kmh W 6.9 mph11.1 kmh 29.74 in1007.1 mb 0.08 in2.0 mm 0.00 in0.0 mm 0.33 in8.4 mm
08:30 PM 59.9°F15.5°C 59.6°F15.3°C 99% Calm Calm 1.6 mph2.6 kmh 29.74 in1007.1 mb 0.12 in3.0 mm 0.16 in4.1 mm 0.37 in9.4 mm
08:45 PM 59.7°F15.4°C 59.5°F15.3°C 99% Calm Calm 2.2 mph3.5 kmh 29.74 in1007.1 mb 0.11 in2.8 mm 0.00 in0.0 mm 0.37 in9.4 mm
09:00 PM 59.5°F15.3°C 59.3°F15.2°C 99% Calm Calm 1.6 mph2.6 kmh 29.74 in1007.1 mb 0.08 in2.0 mm 0.00 in0.0 mm 0.39 in9.9 mm
09:15 PM 59.2°F15.1°C 58.9°F14.9°C 99% Calm Calm 2.2 mph3.5 kmh 29.74 in1007.1 mb 0.08 in2.0 mm 0.00 in0.0 mm 0.41 in10.4 mm
09:30 PM 59.0°F15.0°C 58.7°F14.8°C 99% Calm Calm -- 29.73 in1006.8 mb 0.06 in1.5 mm 0.00 in0.0 mm 0.43 in10.9 mm
09:45 PM 58.8°F14.9°C 58.6°F14.8°C 99% Calm Calm 1.6 mph2.6 kmh 29.73 in1006.8 mb 0.07 in1.8 mm 0.04 in1.0 mm 0.44 in11.2 mm
10:00 PM 58.5°F14.7°C 58.2°F14.6°C 99% 2.2 mph NNE3.5 kmh NNE 3.1 mph5.0 kmh 29.72 in1006.4 mb 0.05 in1.3 mm 0.00 in0.0 mm 0.44 in11.2 mm
10:15 PM 58.3°F14.6°C 58.0°F14.4°C 99% 0.7 mph N1.1 kmh N 3.1 mph5.0 kmh 29.72 in1006.4 mb 0.02 in0.5 mm 0.00 in0.0 mm 0.44 in11.2 mm
10:30 PM 58.3°F14.6°C 58.0°F14.4°C 99% 1.6 mph W2.6 kmh W 3.1 mph5.0 kmh 29.71 in1006.1 mb 0.06 in1.5 mm 0.16 in4.1 mm 0.48 in12.2 mm
10:45 PM 58.5°F14.7°C 58.2°F14.6°C 99% 0.7 mph NW1.1 kmh NW 5.4 mph8.7 kmh 29.72 in1006.4 mb 0.07 in1.8 mm 0.04 in1.0 mm 0.51 in13.0 mm
11:00 PM 58.5°F14.7°C 58.2°F14.6°C 99% 0.7 mph WNW1.1 kmh WNW 4.5 mph7.2 kmh 29.71 in1006.1 mb 0.17 in4.3 mm 0.13 in3.3 mm 0.60 in15.2 mm
11:15 PM 56.7°F13.7°C 56.4°F13.6°C 99% 4.5 mph NNW7.2 kmh NNW 11.4 mph18.3 kmh 29.73 in1006.8 mb 0.19 in4.8 mm 0.08 in2.0 mm 0.63 in16.0 mm
11:30 PM 50.9°F10.5°C 50.6°F10.3°C 99% 8.3 mph N13.4 kmh N 21.3 mph34.3 kmh 29.73 in1006.8 mb 0.14 in3.6 mm 0.00 in0.0 mm 0.63 in16.0 mm
11:45 PM 47.3°F8.5°C 47.0°F8.3°C 99% 6.9 mph NNW11.1 kmh NNW 15.2 mph24.5 kmh 29.73 in1006.8 mb 0.12 in3.0 mm 0.00 in0.0 mm 0.63 in16.0 mm